Time;durP1;ratioP1;P1;durP2;ratioP2;P2;SDS_P1;SDS_P2;PMS_P1;PMS_P2;Temp;Humidity;BMP_temperature;BMP_pressure;BME280_temperature;BME280_humidity;BME280_pressure;Samples;Min_cycle;Max_cycle;Signal;HPM_P1;HPM_P2
2023/10/21 00:02:55;;;;;;;;;;;;;;;;;;781308;22;20183;-92
2023/10/21 00:05:21;;;;;;;;;;;;;;;;;;4989085;28;20325;-93
2023/10/21 00:07:47;;;;;;;;;;;;;;;;;;5003768;28;20350;-93
2023/10/21 00:10:13;;;;;;;;;;;;;;;;;;4987251;28;20003;-93
2023/10/21 00:12:39;;;;;;;;;;;;;;;;;;4990635;28;20354;-93
2023/10/21 00:15:05;;;;;;;;;;;;;;;;;;4988027;28;19913;-93
2023/10/21 00:17:31;;;;;;;;;;;;;;;;;;4991057;28;19937;-93
2023/10/21 00:19:59;;;;;;;;;;;;;;;;;;4989613;28;19952;-93
2023/10/21 00:22:25;;;;;;;;;;;;;;;;;;4985688;28;19971;-93
2023/10/21 00:24:51;;;;;;;;;;;;;;;;;;4999698;28;20015;-93
2023/10/21 00:27:17;;;;;;;;;;;;;;;;;;4990160;28;20426;-93
2023/10/21 00:29:43;;;;;;;;;;;;;;;;;;4989712;28;19925;-95
2023/10/21 00:32:09;;;;;;;;;;;;;;;;;;5003505;28;19922;-95
2023/10/21 00:34:39;;;;;;;;;;;;;;;;;;5001764;28;21455;-94
2023/10/21 00:37:05;;;;;;;;;;;;;;;;;;4991207;28;20004;-94
2023/10/21 00:39:34;;;;;;;;;;;;;;;;;;4988334;28;19927;-95
2023/10/21 00:42:01;;;;;;;;;;;;;;;;;;5004316;28;19922;-94
2023/10/21 00:44:27;;;;;;;;;;;;;;;;;;4991769;28;19936;-95
2023/10/21 00:46:56;;;;;;;;;;;;;;;;;;4997318;28;19956;-94
2023/10/21 00:49:22;;;;;;;;;;;;;;;;;;5011947;28;19960;-91
2023/10/21 00:51:48;;;;;;;;;;;;;;;;;;4998176;28;19917;-91
2023/10/21 00:54:14;;;;;;;;;;;;;;;;;;4998278;28;19914;-91
2023/10/21 00:56:40;;;;;;;;;;;;;;;;;;4994579;28;19914;-91
2023/10/21 00:59:06;;;;;;;;;;;;;;;;;;4978879;28;19921;-91
2023/10/21 01:01:32;;;;;;;;;;;;;;;;;;4978358;28;19921;-90
2023/10/21 01:04:01;;;;;;;;;;;;;;;;;;4996920;28;20298;-90
2023/10/21 01:06:27;;;;;;;;;;;;;;;;;;4978751;28;19917;-91
2023/10/21 01:08:53;;;;;;;;;;;;;;;;;;4979333;28;20354;-90
2023/10/21 01:11:22;;;;;;;;;;;;;;;;;;4980201;28;20025;-90
2023/10/21 01:13:50;;;;;;;;;;;;;;;;;;4985837;28;19917;-90
2023/10/21 01:16:17;;;;;;;;;;;;;;;;;;4994793;28;19910;-90
2023/10/21 01:18:43;;;;;;;;;;;;;;;;;;4995338;28;19910;-90
2023/10/21 01:21:08;;;;;;;;;;;;;;;;;;4998491;28;20437;-90
2023/10/21 01:23:34;;;;;;;;;;;;;;;;;;4999261;28;19960;-90
2023/10/21 01:26:00;;;;;;;;;;;;;;;;;;4998880;28;19942;-90
2023/10/21 01:28:26;;;;;;;;;;;;;;;;;;4998887;28;19941;-91
2023/10/21 01:30:52;;;;;;;;;;;;;;;;;;4982924;28;19933;-91
2023/10/21 01:33:18;;;;;;;;;;;;;;;;;;4998587;28;19909;-90
2023/10/21 01:35:44;;;;;;;;;;;;;;;;;;4974352;28;19914;-92
2023/10/21 01:38:10;;;;;;;;;;;;;;;;;;4981655;28;20295;-90
2023/10/21 01:40:36;;;;;;;;;;;;;;;;;;4983948;28;19928;-91
2023/10/21 01:43:04;;;;;;;;;;;;;;;;;;4982545;28;19910;-90
2023/10/21 01:45:30;;;;;;;;;;;;;;;;;;4982665;28;19913;-91
2023/10/21 01:47:59;;;;;;;;;;;;;;;;;;4998910;28;19920;-91
2023/10/21 01:50:25;;;;;;;;;;;;;;;;;;4985801;28;19971;-91
2023/10/21 01:52:51;;;;;;;;;;;;;;;;;;4982884;28;19914;-91
2023/10/21 01:55:17;;;;;;;;;;;;;;;;;;4982047;28;19910;-90
2023/10/21 01:57:43;;;;;;;;;;;;;;;;;;4980129;28;20008;-93
2023/10/21 02:00:09;;;;;;;;;;;;;;;;;;4975089;28;19981;-96
2023/10/21 02:02:35;;;;;;;;;;;;;;;;;;4991444;28;19961;-93
2023/10/21 02:05:01;;;;;;;;;;;;;;;;;;4985487;28;19929;-95
2023/10/21 02:07:27;;;;;;;;;;;;;;;;;;4975663;28;19926;-96
2023/10/21 02:09:53;;;;;;;;;;;;;;;;;;4974768;28;20579;-93
2023/10/21 02:12:19;;;;;;;;;;;;;;;;;;4988088;28;19976;-93
2023/10/21 02:14:52;;;;;;;;;;;;;;;;;;4986836;28;19925;-93
2023/10/21 02:17:18;;;;;;;;;;;;;;;;;;4985625;28;20362;-94
2023/10/21 02:19:44;;;;;;;;;;;;;;;;;;4981257;28;19936;-95
2023/10/21 02:22:10;;;;;;;;;;;;;;;;;;4979416;28;20490;-94
2023/10/21 02:24:36;;;;;;;;;;;;;;;;;;4972187;28;19953;-93
2023/10/21 02:27:09;;;;;;;;;;;;;;;;;;4975341;28;19995;-95
2023/10/21 02:29:37;;;;;;;;;;;;;;;;;;4971936;28;19917;-94
2023/10/21 02:32:03;;;;;;;;;;;;;;;;;;4972703;28;19970;-94
2023/10/21 02:34:29;;;;;;;;;;;;;;;;;;4972078;28;19914;-94
2023/10/21 02:36:55;;;;;;;;;;;;;;;;;;4971838;28;19925;-95
2023/10/21 02:39:21;;;;;;;;;;;;;;;;;;4974408;28;20249;-95
2023/10/21 02:41:47;;;;;;;;;;;;;;;;;;4967615;28;19928;-95
2023/10/21 02:44:13;;;;;;;;;;;;;;;;;;4975630;28;20278;-96
2023/10/21 02:46:39;;;;;;;;;;;;;;;;;;4985443;28;19914;-93
2023/10/21 02:49:05;;;;;;;;;;;;;;;;;;4985134;28;19953;-95
2023/10/21 02:51:31;;;;;;;;;;;;;;;;;;4979833;28;19945;-94
2023/10/21 02:53:57;;;;;;;;;;;;;;;;;;4991191;28;19949;-95
2023/10/21 02:56:23;;;;;;;;;;;;;;;;;;4972230;28;19922;-94
2023/10/21 02:58:56;;;;;;;;;;;;;;;;;;4965119;28;20365;-93
2023/10/21 03:01:24;;;;;;;;;;;;;;;;;;4968788;28;20000;-94
2023/10/21 03:03:51;;;;;;;;;;;;;;;;;;4970154;28;19998;-93
2023/10/21 03:06:17;;;;;;;;;;;;;;;;;;4949765;28;20288;-94
2023/10/21 03:08:42;;;;;;;;;;;;;;;;;;4955585;28;19914;-92
2023/10/21 03:11:09;;;;;;;;;;;;;;;;;;4964862;28;20024;-92
2023/10/21 03:13:35;;;;;;;;;;;;;;;;;;4947272;28;20342;-92
2023/10/21 03:16:01;;;;;;;;;;;;;;;;;;4949599;28;19969;-92
2023/10/21 03:18:26;;;;;;;;;;;;;;;;;;4951433;28;19921;-93
2023/10/21 03:20:52;;;;;;;;;;;;;;;;;;4950256;28;19941;-92
2023/10/21 03:23:18;;;;;;;;;;;;;;;;;;4958784;28;20352;-92
2023/10/21 03:25:44;;;;;;;;;;;;;;;;;;4945368;28;20354;-91
2023/10/21 03:28:10;;;;;;;;;;;;;;;;;;4964542;28;19977;-92
2023/10/21 03:30:37;;;;;;;;;;;;;;;;;;4963186;28;20426;-92
2023/10/21 03:33:03;;;;;;;;;;;;;;;;;;4965108;28;19915;-93
2023/10/21 03:35:29;;;;;;;;;;;;;;;;;;4947020;28;19922;-92
2023/10/21 03:37:55;;;;;;;;;;;;;;;;;;4951235;28;20013;-92
2023/10/21 03:40:21;;;;;;;;;;;;;;;;;;4953570;28;19993;-91
2023/10/21 03:42:53;;;;;;;;;;;;;;;;;;4951208;28;19981;-92
2023/10/21 03:45:19;;;;;;;;;;;;;;;;;;4953199;28;19969;-91
2023/10/21 03:47:46;;;;;;;;;;;;;;;;;;4949828;28;19918;-91
2023/10/21 03:50:12;;;;;;;;;;;;;;;;;;4950306;28;19968;-93
2023/10/21 03:52:38;;;;;;;;;;;;;;;;;;4948267;28;20295;-91
2023/10/21 03:55:05;;;;;;;;;;;;;;;;;;4949054;28;20120;-93
2023/10/21 03:57:31;;;;;;;;;;;;;;;;;;4965139;28;19927;-91
2023/10/21 03:59:57;;;;;;;;;;;;;;;;;;4953418;28;19921;-91
2023/10/21 04:02:23;;;;;;;;;;;;;;;;;;4961407;28;20306;-90
2023/10/21 04:04:49;;;;;;;;;;;;;;;;;;4963908;28;19926;-91
2023/10/21 04:07:15;;;;;;;;;;;;;;;;;;4972359;28;19926;-91
2023/10/21 04:09:41;;;;;;;;;;;;;;;;;;4969266;28;20382;-93
2023/10/21 04:12:07;;;;;;;;;;;;;;;;;;4967844;28;20000;-92
2023/10/21 04:14:33;;;;;;;;;;;;;;;;;;4966774;28;20369;-92
2023/10/21 04:16:59;;;;;;;;;;;;;;;;;;4968197;28;19914;-93
2023/10/21 04:19:26;;;;;;;;;;;;;;;;;;4972609;28;20378;-95
2023/10/21 04:21:53;;;;;;;;;;;;;;;;;;4983501;28;19922;-94
2023/10/21 04:24:19;;;;;;;;;;;;;;;;;;4976011;28;19946;-95
2023/10/21 04:26:45;;;;;;;;;;;;;;;;;;4977622;28;19914;-94
2023/10/21 04:29:12;;;;;;;;;;;;;;;;;;4985356;28;19921;-92
2023/10/21 04:31:39;;;;;;;;;;;;;;;;;;4970369;28;19965;-92
2023/10/21 04:34:05;;;;;;;;;;;;;;;;;;4965685;28;19914;-93
2023/10/21 04:36:31;;;;;;;;;;;;;;;;;;4971287;28;20687;-91
2023/10/21 04:38:57;;;;;;;;;;;;;;;;;;4971134;28;19970;-92
2023/10/21 04:41:23;;;;;;;;;;;;;;;;;;4970994;28;19921;-92
2023/10/21 04:43:50;;;;;;;;;;;;;;;;;;4969427;28;19918;-91
2023/10/21 04:46:17;;;;;;;;;;;;;;;;;;4969519;28;19914;-92
2023/10/21 04:48:44;;;;;;;;;;;;;;;;;;4969451;28;20490;-91
2023/10/21 04:51:10;;;;;;;;;;;;;;;;;;4969104;28;19969;-92
2023/10/21 04:53:36;;;;;;;;;;;;;;;;;;4967952;28;19910;-91
2023/10/21 04:56:03;;;;;;;;;;;;;;;;;;4981288;28;19922;-92
2023/10/21 04:58:29;;;;;;;;;;;;;;;;;;4974693;28;19922;-92
2023/10/21 05:00:55;;;;;;;;;;;;;;;;;;4971548;28;19926;-92
2023/10/21 05:03:22;;;;;;;;;;;;;;;;;;4971432;28;20330;-91
2023/10/21 05:05:48;;;;;;;;;;;;;;;;;;4959985;28;19941;-92
2023/10/21 05:08:14;;;;;;;;;;;;;;;;;;4964534;28;19919;-93
2023/10/21 05:10:43;;;;;;;;;;;;;;;;;;4953112;28;19978;-92
2023/10/21 05:13:09;;;;;;;;;;;;;;;;;;4956149;28;19922;-92
2023/10/21 05:15:36;;;;;;;;;;;;;;;;;;4955494;28;19930;-90
2023/10/21 05:18:02;;;;;;;;;;;;;;;;;;4954533;28;19921;-90
2023/10/21 05:20:29;;;;;;;;;;;;;;;;;;4952374;28;19918;-91
2023/10/21 05:22:54;;;;;;;;;;;;;;;;;;4955469;28;19922;-92
2023/10/21 05:25:23;;;;;;;;;;;;;;;;;;4952724;28;19969;-92
2023/10/21 05:27:50;;;;;;;;;;;;;;;;;;4952360;28;19969;-94
2023/10/21 05:30:17;;;;;;;;;;;;;;;;;;4967685;28;19969;-95
2023/10/21 05:32:43;;;;;;;;;;;;;;;;;;4968892;28;20299;-95
2023/10/21 05:35:09;;;;;;;;;;;;;;;;;;4962298;28;19921;-94
2023/10/21 05:37:35;;;;;;;;;;;;;;;;;;4968248;28;19925;-92
2023/10/21 05:40:05;;;;;;;;;;;;;;;;;;4957293;28;20057;-96
2023/10/21 05:42:31;;;;;;;;;;;;;;;;;;4965359;28;19996;-95
2023/10/21 05:45:01;;;;;;;;;;;;;;;;;;4976269;28;19922;-96
2023/10/21 05:47:33;;;;;;;;;;;;;;;;;;4972098;28;19981;-96
2023/10/21 05:49:59;;;;;;;;;;;;;;;;;;4955559;28;19914;-94
2023/10/21 05:52:25;;;;;;;;;;;;;;;;;;4963943;28;19926;-94
2023/10/21 05:54:51;;;;;;;;;;;;;;;;;;4951598;28;19936;-96
2023/10/21 05:57:17;;;;;;;;;;;;;;;;;;4953855;28;20024;-93
2023/10/21 05:59:43;;;;;;;;;;;;;;;;;;4963830;28;20365;-95
2023/10/21 06:02:12;;;;;;;;;;;;;;;;;;4955520;28;20188;-96
2023/10/21 06:04:38;;;;;;;;;;;;;;;;;;4956705;28;19953;-94
2023/10/21 06:07:04;;;;;;;;;;;;;;;;;;4966524;28;20690;-96
2023/10/21 06:09:31;;;;;;;;;;;;;;;;;;4963461;28;19918;-95
2023/10/21 06:11:59;;;;;;;;;;;;;;;;;;4965496;28;20377;-96
2023/10/21 06:14:25;;;;;;;;;;;;;;;;;;4954921;28;19918;-95
2023/10/21 06:16:51;;;;;;;;;;;;;;;;;;4965704;28;19915;-96
2023/10/21 06:19:17;;;;;;;;;;;;;;;;;;4949225;28;19922;-94
2023/10/21 06:21:43;;;;;;;;;;;;;;;;;;4952119;28;19926;-93
2023/10/21 06:24:08;;;;;;;;;;;;;;;;;;4950484;28;19921;-95
2023/10/21 06:26:35;;;;;;;;;;;;;;;;;;4951427;28;19965;-96
2023/10/21 06:29:08;;;;;;;;;;;;;;;;;;4962287;28;19924;-96
2023/10/21 06:31:35;;;;;;;;;;;;;;;;;;4965216;28;20010;-96
2023/10/21 06:34:01;;;;;;;;;;;;;;;;;;4952932;28;21026;-94
2023/10/21 06:36:27;;;;;;;;;;;;;;;;;;4945945;28;19946;-94
2023/10/21 06:38:53;;;;;;;;;;;;;;;;;;4950771;28;19921;-93
2023/10/21 06:41:19;;;;;;;;;;;;;;;;;;4950966;28;19984;-96
2023/10/21 06:43:45;;;;;;;;;;;;;;;;;;4955614;28;19918;-96
2023/10/21 06:46:13;;;;;;;;;;;;;;;;;;4952451;28;19922;-96
2023/10/21 06:48:39;;;;;;;;;;;;;;;;;;4950439;28;19922;-94
2023/10/21 06:51:05;;;;;;;;;;;;;;;;;;4964343;28;19949;-94
2023/10/21 06:53:31;;;;;;;;;;;;;;;;;;4953177;28;20013;-96
2023/10/21 06:55:58;;;;;;;;;;;;;;;;;;4951475;28;20239;-96
2023/10/21 06:58:24;;;;;;;;;;;;;;;;;;4949368;28;19923;-94
2023/10/21 07:00:50;;;;;;;;;;;;;;;;;;4952120;28;20000;-94
2023/10/21 07:03:17;;;;;;;;;;;;;;;;;;4953200;28;20502;-95
2023/10/21 07:05:46;;;;;;;;;;;;;;;;;;4973699;28;19978;-93
2023/10/21 10:32:36;;;;;;;;;;;;;;;;;;5005638;28;19952;-92
2023/10/21 10:35:02;;;;;;;;;;;;;;;;;;5006066;28;19929;-92
2023/10/21 10:37:31;;;;;;;;;;;;;;;;;;4993095;28;19913;-91
2023/10/21 10:39:57;;;;;;;;;;;;;;;;;;4996589;28;19921;-91
2023/10/21 10:42:23;;;;;;;;;;;;;;;;;;4985373;28;19982;-93
2023/10/21 10:44:49;;;;;;;;;;;;;;;;;;4995015;28;20285;-93
2023/10/21 10:47:15;;;;;;;;;;;;;;;;;;4990734;28;19921;-92
2023/10/21 10:49:41;;;;;;;;;;;;;;;;;;4997957;28;19924;-92
2023/10/21 10:52:07;;;;;;;;;;;;;;;;;;4997429;28;19925;-93
2023/10/21 10:54:33;;;;;;;;;;;;;;;;;;4992885;28;19921;-92
2023/10/21 10:57:00;;;;;;;;;;;;;;;;;;4999439;28;19981;-93
2023/10/21 10:59:26;;;;;;;;;;;;;;;;;;4980208;28;20017;-93
2023/10/21 11:01:52;;;;;;;;;;;;;;;;;;4992296;28;19961;-93
2023/10/21 11:04:18;;;;;;;;;;;;;;;;;;4991532;28;19972;-92
2023/10/21 11:06:45;;;;;;;;;;;;;;;;;;4983630;28;20385;-93
2023/10/21 11:09:17;;;;;;;;;;;;;;;;;;4974721;28;20285;-94
2023/10/21 11:11:42;;;;;;;;;;;;;;;;;;4969471;28;19994;-93
2023/10/21 11:14:10;;;;;;;;;;;;;;;;;;4990018;28;20015;-94
2023/10/21 11:16:36;;;;;;;;;;;;;;;;;;4967023;28;19921;-94
2023/10/21 15:46:03;;;;;;;;;;;;;;;;;;779368;22;20216;-92
2023/10/21 15:48:29;;;;;;;;;;;;;;;;;;4966475;28;19926;-93
2023/10/21 15:50:55;;;;;;;;;;;;;;;;;;4964786;28;19924;-92
2023/10/21 15:53:22;;;;;;;;;;;;;;;;;;4972562;28;19965;-92
2023/10/21 15:55:47;;;;;;;;;;;;;;;;;;4961886;28;19918;-92
2023/10/21 15:58:14;;;;;;;;;;;;;;;;;;4963137;28;19924;-96
2023/10/21 16:00:40;;;;;;;;;;;;;;;;;;4969942;28;19961;-95
2023/10/21 16:03:06;;;;;;;;;;;;;;;;;;4960664;28;19968;-94
2023/10/21 16:05:32;;;;;;;;;;;;;;;;;;4971407;28;20214;-95
2023/10/21 16:07:58;;;;;;;;;;;;;;;;;;4958137;28;19922;-93
2023/10/21 16:10:24;;;;;;;;;;;;;;;;;;4953781;28;20481;-92
2023/10/21 16:12:53;;;;;;;;;;;;;;;;;;4949315;28;19922;-93
2023/10/21 16:15:19;;;;;;;;;;;;;;;;;;4951050;28;19918;-92
2023/10/21 16:17:46;;;;;;;;;;;;;;;;;;4952565;28;22461;-92
2023/10/21 16:20:12;;;;;;;;;;;;;;;;;;4963143;28;20286;-92
2023/10/21 16:22:38;;;;;;;;;;;;;;;;;;4946901;28;19922;-92
2023/10/21 16:25:04;;;;;;;;;;;;;;;;;;4951468;28;19918;-93
2023/10/21 16:27:30;;;;;;;;;;;;;;;;;;4951687;28;19980;-92
2023/10/21 16:29:56;;;;;;;;;;;;;;;;;;4945569;28;19940;-92
2023/10/21 16:32:22;;;;;;;;;;;;;;;;;;4956138;28;20456;-92
2023/10/21 16:34:56;;;;;;;;;;;;;;;;;;4950310;28;20011;-93
2023/10/21 16:37:22;;;;;;;;;;;;;;;;;;4948187;28;20618;-93
2023/10/21 16:39:48;;;;;;;;;;;;;;;;;;4950667;28;19921;-93
2023/10/21 16:42:14;;;;;;;;;;;;;;;;;;4950468;28;19942;-92
2023/10/21 16:44:41;;;;;;;;;;;;;;;;;;4952750;28;19914;-92
2023/10/21 16:47:07;;;;;;;;;;;;;;;;;;4947054;28;19931;-92
2023/10/21 16:49:33;;;;;;;;;;;;;;;;;;4929927;28;19926;-92
2023/10/21 16:51:59;;;;;;;;;;;;;;;;;;4932479;28;19942;-91
2023/10/21 16:54:27;;;;;;;;;;;;;;;;;;4948630;28;19914;-91
2023/10/21 16:56:53;;;;;;;;;;;;;;;;;;4934763;28;19961;-92
2023/10/21 16:59:18;;;;;;;;;;;;;;;;;;4934390;28;20021;-92
2023/10/21 17:01:46;;;;;;;;;;;;;;;;;;4943236;28;20386;-92
2023/10/21 17:04:12;;;;;;;;;;;;;;;;;;4932725;28;19923;-91
2023/10/21 17:06:39;;;;;;;;;;;;;;;;;;4939617;28;19942;-93
2023/10/21 17:09:05;;;;;;;;;;;;;;;;;;4936107;28;19930;-93
2023/10/21 17:11:31;;;;;;;;;;;;;;;;;;4937105;28;20378;-93
2023/10/21 17:13:57;;;;;;;;;;;;;;;;;;4936975;28;20259;-93
2023/10/21 17:16:23;;;;;;;;;;;;;;;;;;4939181;28;19969;-94
2023/10/21 17:18:49;;;;;;;;;;;;;;;;;;4940477;29;19918;-93
2023/10/21 17:21:15;;;;;;;;;;;;;;;;;;4955859;28;19925;-93
2023/10/21 17:23:42;;;;;;;;;;;;;;;;;;4940427;28;20045;-93
2023/10/21 17:26:11;;;;;;;;;;;;;;;;;;4941219;28;19945;-93
2023/10/21 17:28:37;;;;;;;;;;;;;;;;;;4941333;28;20465;-93
2023/10/21 17:31:04;;;;;;;;;;;;;;;;;;4939753;28;19925;-93
2023/10/21 17:33:30;;;;;;;;;;;;;;;;;;4963507;28;20402;-93
2023/10/21 17:35:56;;;;;;;;;;;;;;;;;;4935684;28;19924;-93
2023/10/21 17:38:22;;;;;;;;;;;;;;;;;;4952032;28;20334;-93
2023/10/21 17:40:48;;;;;;;;;;;;;;;;;;4936812;28;19925;-93
2023/10/21 17:43:16;;;;;;;;;;;;;;;;;;4936580;28;19918;-93
2023/10/21 17:45:42;;;;;;;;;;;;;;;;;;4938170;28;19930;-93
2023/10/21 17:48:08;;;;;;;;;;;;;;;;;;4954116;28;19926;-93
2023/10/21 17:50:37;;;;;;;;;;;;;;;;;;4953355;28;19941;-95
2023/10/21 17:53:04;;;;;;;;;;;;;;;;;;4953519;28;19922;-94
2023/10/21 17:55:30;;;;;;;;;;;;;;;;;;4954076;28;20023;-93
2023/10/21 17:57:56;;;;;;;;;;;;;;;;;;4955330;28;20037;-95
2023/10/21 18:00:33;;;;;;;;;;;;;;;;;;4961815;28;19922;-94
2023/10/21 18:03:00;;;;;;;;;;;;;;;;;;4958201;28;20120;-96
2023/10/21 18:05:27;;;;;;;;;;;;;;;;;;4956516;28;20009;-95
2023/10/21 18:07:53;;;;;;;;;;;;;;;;;;4956279;28;19914;-96
2023/10/21 18:10:20;;;;;;;;;;;;;;;;;;4956833;28;20287;-96
2023/10/21 18:12:46;;;;;;;;;;;;;;;;;;4971672;28;20308;-96
2023/10/21 18:15:12;;;;;;;;;;;;;;;;;;4958124;28;20490;-96
2023/10/21 18:17:41;;;;;;;;;;;;;;;;;;4954655;28;20145;-95
2023/10/21 18:20:09;;;;;;;;;;;;;;;;;;4973070;28;19918;-90
2023/10/21 18:22:39;;;;;;;;;;;;;;;;;;4981188;28;20370;-90
2023/10/21 18:25:05;;;;;;;;;;;;;;;;;;4981617;28;19914;-91
2023/10/21 18:27:31;;;;;;;;;;;;;;;;;;4963399;28;19965;-89
2023/10/21 18:30:00;;;;;;;;;;;;;;;;;;4972978;28;19945;-94
2023/10/21 18:32:29;;;;;;;;;;;;;;;;;;4975912;28;20544;-94
2023/10/21 18:34:56;;;;;;;;;;;;;;;;;;4972932;28;19918;-93
2023/10/21 18:37:28;;;;;;;;;;;;;;;;;;4970375;28;19953;-93
2023/10/21 18:39:54;;;;;;;;;;;;;;;;;;4973906;28;20548;-94
2023/10/21 18:42:20;;;;;;;;;;;;;;;;;;4958873;28;19930;-94
2023/10/21 18:44:46;;;;;;;;;;;;;;;;;;4969941;28;19973;-96
2023/10/21 18:47:12;;;;;;;;;;;;;;;;;;4965029;28;19926;-96
2023/10/21 18:49:41;;;;;;;;;;;;;;;;;;4975976;28;19972;-94
2023/10/21 18:52:07;;;;;;;;;;;;;;;;;;4957778;28;19945;-95
2023/10/21 18:54:34;;;;;;;;;;;;;;;;;;4977258;28;19915;-96
2023/10/21 18:57:00;;;;;;;;;;;;;;;;;;4953959;28;20290;-93
2023/10/21 18:59:26;;;;;;;;;;;;;;;;;;4952543;28;19914;-95
2023/10/21 19:01:57;;;;;;;;;;;;;;;;;;4951233;28;19928;-95
2023/10/21 19:04:23;;;;;;;;;;;;;;;;;;4953472;28;20646;-96
2023/10/21 19:06:49;;;;;;;;;;;;;;;;;;4949766;28;20013;-96
2023/10/21 19:09:15;;;;;;;;;;;;;;;;;;4951188;28;19918;-96
2023/10/21 19:11:41;;;;;;;;;;;;;;;;;;4952437;28;19956;-94
2023/10/21 19:14:07;;;;;;;;;;;;;;;;;;4953290;28;20171;-95
2023/10/21 19:16:33;;;;;;;;;;;;;;;;;;4954023;28;20405;-96
2023/10/21 19:18:59;;;;;;;;;;;;;;;;;;4957529;28;20529;-94
2023/10/21 19:21:25;;;;;;;;;;;;;;;;;;4968643;28;19922;-96
2023/10/21 19:23:51;;;;;;;;;;;;;;;;;;4953790;28;19922;-96
2023/10/21 19:26:18;;;;;;;;;;;;;;;;;;4972856;28;19922;-96
2023/10/21 19:28:45;;;;;;;;;;;;;;;;;;4958535;28;20313;-91
2023/10/21 19:31:14;;;;;;;;;;;;;;;;;;4973422;28;20396;-92
2023/10/21 19:33:43;;;;;;;;;;;;;;;;;;4960544;28;19917;-91
2023/10/21 19:36:11;;;;;;;;;;;;;;;;;;4956191;28;19943;-91
2023/10/21 19:38:36;;;;;;;;;;;;;;;;;;4961243;28;19915;-91
2023/10/21 19:41:03;;;;;;;;;;;;;;;;;;4956238;28;19941;-91
2023/10/21 19:43:29;;;;;;;;;;;;;;;;;;4958851;28;20001;-91
2023/10/21 19:45:56;;;;;;;;;;;;;;;;;;4956536;28;20028;-91
2023/10/21 19:48:22;;;;;;;;;;;;;;;;;;4973685;28;20283;-91
2023/10/21 19:50:48;;;;;;;;;;;;;;;;;;4969551;28;20358;-94
2023/10/21 19:53:14;;;;;;;;;;;;;;;;;;4956076;28;19918;-91
2023/10/21 19:55:40;;;;;;;;;;;;;;;;;;4950244;28;19915;-90
2023/10/21 19:58:08;;;;;;;;;;;;;;;;;;4960685;28;19984;-91
2023/10/21 20:00:34;;;;;;;;;;;;;;;;;;4956585;28;19918;-90
2023/10/21 20:03:00;;;;;;;;;;;;;;;;;;4966022;28;19976;-92
2023/10/21 20:05:26;;;;;;;;;;;;;;;;;;4950123;28;19954;-91
2023/10/21 20:07:52;;;;;;;;;;;;;;;;;;4957955;28;19918;-91
2023/10/21 20:10:19;;;;;;;;;;;;;;;;;;4958616;28;20004;-91
2023/10/21 20:12:45;;;;;;;;;;;;;;;;;;4957810;28;20294;-91
2023/10/21 20:15:18;;;;;;;;;;;;;;;;;;4957061;28;20187;-91
2023/10/21 20:17:44;;;;;;;;;;;;;;;;;;4968165;28;20001;-94
2023/10/21 20:20:10;;;;;;;;;;;;;;;;;;4956285;28;19946;-90
2023/10/21 20:22:36;;;;;;;;;;;;;;;;;;4957023;28;19918;-92
2023/10/21 20:25:02;;;;;;;;;;;;;;;;;;4956721;28;20290;-90
2023/10/21 20:27:28;;;;;;;;;;;;;;;;;;4959451;28;19922;-92
2023/10/21 20:29:54;;;;;;;;;;;;;;;;;;4974162;28;20034;-91
2023/10/21 20:32:20;;;;;;;;;;;;;;;;;;4958945;28;19918;-91
2023/10/21 20:34:46;;;;;;;;;;;;;;;;;;4953871;28;19915;-91
2023/10/21 20:37:12;;;;;;;;;;;;;;;;;;4963127;28;19950;-91
2023/10/21 20:39:44;;;;;;;;;;;;;;;;;;4959884;28;19913;-92
2023/10/21 20:42:10;;;;;;;;;;;;;;;;;;4956502;28;19914;-91
2023/10/21 20:44:36;;;;;;;;;;;;;;;;;;4960489;28;19914;-91
2023/10/21 20:47:02;;;;;;;;;;;;;;;;;;4957091;28;19918;-91
2023/10/21 20:49:28;;;;;;;;;;;;;;;;;;4963770;28;20375;-91
2023/10/21 20:51:54;;;;;;;;;;;;;;;;;;4958539;28;19914;-92
2023/10/21 20:54:20;;;;;;;;;;;;;;;;;;4962770;28;20480;-92
2023/10/21 20:56:46;;;;;;;;;;;;;;;;;;4966393;28;20370;-92
2023/10/21 20:59:12;;;;;;;;;;;;;;;;;;4964090;28;19922;-91
2023/10/21 21:01:39;;;;;;;;;;;;;;;;;;4973975;28;19925;-91
2023/10/21 21:04:05;;;;;;;;;;;;;;;;;;4961339;28;19918;-91
2023/10/21 21:06:31;;;;;;;;;;;;;;;;;;4971656;28;19919;-92
2023/10/21 21:08:59;;;;;;;;;;;;;;;;;;4956785;28;19929;-92
2023/10/21 21:11:25;;;;;;;;;;;;;;;;;;4959847;28;20609;-92
2023/10/21 21:13:51;;;;;;;;;;;;;;;;;;4958654;28;19918;-92
2023/10/21 21:16:17;;;;;;;;;;;;;;;;;;4960862;28;19918;-92
2023/10/21 21:18:43;;;;;;;;;;;;;;;;;;4956971;28;19919;-91
2023/10/21 21:21:09;;;;;;;;;;;;;;;;;;4971861;28;19914;-89
2023/10/21 21:23:35;;;;;;;;;;;;;;;;;;4952742;28;20061;-91
2023/10/21 21:26:01;;;;;;;;;;;;;;;;;;4953173;28;20302;-90
2023/10/21 21:28:27;;;;;;;;;;;;;;;;;;4959536;28;19918;-90
2023/10/21 21:30:53;;;;;;;;;;;;;;;;;;4945975;28;19925;-90
2023/10/21 21:33:19;;;;;;;;;;;;;;;;;;4973750;28;19914;-92
2023/10/21 21:35:45;;;;;;;;;;;;;;;;;;4965927;28;19914;-92
2023/10/21 21:38:11;;;;;;;;;;;;;;;;;;4964963;28;19918;-92
2023/10/21 21:40:37;;;;;;;;;;;;;;;;;;4959885;28;19914;-91
2023/10/21 21:43:06;;;;;;;;;;;;;;;;;;4956832;28;19914;-93
2023/10/21 21:45:32;;;;;;;;;;;;;;;;;;4955026;28;19922;-92
2023/10/21 21:47:58;;;;;;;;;;;;;;;;;;4957265;28;20009;-93
2023/10/21 21:50:24;;;;;;;;;;;;;;;;;;4974109;28;19920;-94
2023/10/21 21:52:50;;;;;;;;;;;;;;;;;;4958631;28;19914;-93
2023/10/21 21:55:16;;;;;;;;;;;;;;;;;;4975109;28;19921;-95
2023/10/21 21:57:42;;;;;;;;;;;;;;;;;;4972656;28;19933;-91
2023/10/21 22:00:09;;;;;;;;;;;;;;;;;;4958373;28;19921;-95
2023/10/21 22:02:35;;;;;;;;;;;;;;;;;;4980343;28;19980;-94
2023/10/21 22:05:01;;;;;;;;;;;;;;;;;;4958755;28;19922;-95
2023/10/21 22:07:27;;;;;;;;;;;;;;;;;;4973591;28;19915;-94
2023/10/21 22:09:53;;;;;;;;;;;;;;;;;;4958606;28;19914;-94
2023/10/21 22:12:19;;;;;;;;;;;;;;;;;;4954325;28;19924;-93
2023/10/21 22:14:45;;;;;;;;;;;;;;;;;;4973093;28;19918;-93
2023/10/21 22:17:11;;;;;;;;;;;;;;;;;;4951834;28;19990;-94
2023/10/21 22:19:37;;;;;;;;;;;;;;;;;;4954581;28;19943;-93
2023/10/21 22:22:05;;;;;;;;;;;;;;;;;;4955208;28;19965;-94
2023/10/21 22:24:31;;;;;;;;;;;;;;;;;;4953299;28;19989;-94
2023/10/21 22:26:57;;;;;;;;;;;;;;;;;;4957739;28;20332;-93
2023/10/21 22:29:29;;;;;;;;;;;;;;;;;;4953952;28;19918;-93
2023/10/21 22:31:55;;;;;;;;;;;;;;;;;;4953217;28;19919;-94
2023/10/21 22:34:21;;;;;;;;;;;;;;;;;;4969595;28;19922;-94
2023/10/21 22:36:47;;;;;;;;;;;;;;;;;;4968835;28;19925;-95
2023/10/21 22:39:16;;;;;;;;;;;;;;;;;;4958367;28;20008;-93
2023/10/21 22:41:43;;;;;;;;;;;;;;;;;;4956510;28;20004;-94
2023/10/21 22:44:09;;;;;;;;;;;;;;;;;;4959286;28;19918;-93
2023/10/21 22:46:36;;;;;;;;;;;;;;;;;;4956406;28;19922;-93
2023/10/21 22:49:02;;;;;;;;;;;;;;;;;;4959189;28;19980;-93
2023/10/21 22:51:28;;;;;;;;;;;;;;;;;;4956816;28;19922;-94
2023/10/21 22:53:54;;;;;;;;;;;;;;;;;;4958761;28;20379;-93
2023/10/21 22:56:20;;;;;;;;;;;;;;;;;;4956109;28;19977;-93
2023/10/21 22:58:46;;;;;;;;;;;;;;;;;;4963821;28;19938;-89
2023/10/21 23:01:16;;;;;;;;;;;;;;;;;;4978461;28;19914;-89
2023/10/21 23:03:42;;;;;;;;;;;;;;;;;;4968113;28;19914;-91
2023/10/21 23:06:15;;;;;;;;;;;;;;;;;;4979862;28;20377;-90
